createdAt,value
2023-01-09T00:01:47.886Z,99242.97
2023-01-09T00:04:15.944Z,99248.09
2023-01-09T00:06:45.834Z,99249.75
2023-01-09T00:09:13.900Z,99258.22
2023-01-09T00:11:41.693Z,99253.94
2023-01-09T00:14:11.207Z,99254.81
2023-01-09T00:16:39.140Z,99259.94
2023-01-09T00:19:06.981Z,99257.34
2023-01-09T00:21:34.976Z,99261.63
2023-01-09T00:24:02.980Z,99262.50
2023-01-09T00:26:30.747Z,99256.50
2023-01-09T00:28:59.168Z,99260.72
2023-01-09T00:31:29.009Z,99262.47
2023-01-09T00:34:00.958Z,99257.34
2023-01-09T00:36:29.130Z,99262.50
2023-01-09T00:38:57.198Z,99264.16
2023-01-09T00:41:28.600Z,99272.69
2023-01-09T00:43:59.474Z,99265.78
2023-01-09T00:46:34.490Z,99276.88
2023-01-09T00:49:06.508Z,99272.56
2023-01-09T00:51:34.549Z,99277.69
2023-01-09T00:54:03.871Z,99276.88
2023-01-09T00:56:32.109Z,99270.91
2023-01-09T00:58:59.917Z,99270.00
2023-01-09T01:01:29.310Z,99271.75
2023-01-09T01:03:57.276Z,99275.19
2023-01-09T01:06:42.914Z,99270.06
2023-01-09T01:09:10.736Z,99264.94
2023-01-09T01:11:38.525Z,99268.41
2023-01-09T01:14:06.407Z,99259.03
2023-01-09T01:16:35.629Z,99253.09
2023-01-09T01:19:03.529Z,99243.78
2023-01-09T01:21:31.460Z,99237.84
2023-01-09T01:23:59.322Z,99231.94
2023-01-09T01:26:27.400Z,99227.66
2023-01-09T01:28:59.454Z,99216.69
2023-01-09T01:31:27.272Z,99197.97
2023-01-09T01:33:56.570Z,99198.00
2023-01-09T01:36:24.335Z,99196.38
2023-01-09T01:38:52.154Z,99184.53
2023-01-09T01:41:29.567Z,99167.50
2023-01-09T01:43:59.766Z,99159.88
2023-01-09T01:46:27.958Z,99150.56
2023-01-09T01:49:02.138Z,99146.38
2023-01-09T01:51:34.174Z,99148.91
2023-01-09T01:54:06.903Z,99137.84
2023-01-09T01:56:37.659Z,99133.69
2023-01-09T01:59:10.911Z,99130.28
2023-01-09T02:04:36.511Z,99119.25
2023-01-09T02:07:09.692Z,99116.75
2023-01-09T02:09:39.669Z,99106.53
2023-01-09T02:12:17.256Z,99098.06
2023-01-09T02:14:46.043Z,99082.75
2023-01-09T02:17:37.984Z,99095.56
2023-01-09T02:20:36.577Z,99082.81
2023-01-09T02:23:27.345Z,99087.94
2023-01-09T02:26:25.159Z,99076.88
2023-01-09T02:29:13.853Z,99072.66
2023-01-09T02:31:50.109Z,99071.75
2023-01-09T02:34:27.465Z,99071.00
2023-01-09T02:37:03.401Z,99063.38
2023-01-09T02:39:38.217Z,99056.56
2023-01-09T02:42:11.912Z,99048.94
2023-01-09T02:44:42.989Z,99044.69
2023-01-09T02:47:49.650Z,99038.78
2023-01-09T02:50:26.059Z,99037.97
2023-01-09T02:53:26.758Z,99031.16
2023-01-09T02:56:04.286Z,99036.28
2023-01-09T02:58:50.749Z,99026.09
2023-01-09T03:01:27.937Z,99018.41
2023-01-09T03:04:05.865Z,99015.13
2023-01-09T03:06:43.939Z,99018.56
2023-01-09T03:09:16.370Z,99008.31
2023-01-09T03:14:46.779Z,98993.09
2023-01-09T03:17:20.354Z,98995.66
2023-01-09T03:19:50.153Z,98983.75
2023-01-09T03:22:19.641Z,98976.97
2023-01-09T03:24:47.552Z,98983.00
2023-01-09T03:27:16.062Z,98983.88
2023-01-09T03:29:45.664Z,98966.84
2023-01-09T03:32:13.899Z,98964.34
2023-01-09T03:34:41.734Z,98970.31
2023-01-09T03:37:09.578Z,98970.34
2023-01-09T03:39:38.664Z,98965.22
2023-01-09T03:42:06.707Z,98958.38
2023-01-09T03:44:34.514Z,98960.09
2023-01-09T03:47:02.316Z,98959.25
2023-01-09T03:49:30.143Z,98968.59
2023-01-09T03:51:58.040Z,98958.38
2023-01-09T03:54:25.813Z,98958.41
2023-01-09T03:56:54.941Z,98964.34
2023-01-09T03:59:23.015Z,98966.03
2023-01-09T04:01:51.036Z,98966.03
2023-01-09T04:04:19.009Z,98971.13
2023-01-09T04:06:46.812Z,98962.66
2023-01-09T04:09:14.731Z,98965.22
2023-01-09T04:11:42.523Z,98967.78
2023-01-09T04:14:11.666Z,98964.38
2023-01-09T04:16:39.774Z,98959.25
2023-01-09T04:19:07.649Z,98966.09
2023-01-09T04:21:35.686Z,98959.31
2023-01-09T04:24:03.813Z,98963.53
2023-01-09T04:26:31.596Z,98963.53
2023-01-09T04:29:01.857Z,98962.72
2023-01-09T04:31:31.003Z,98963.53
2023-01-09T04:33:58.860Z,98967.78
2023-01-09T04:36:26.638Z,98961.88
2023-01-09T04:38:54.567Z,98952.53
2023-01-09T04:41:36.271Z,98953.44
2023-01-09T04:44:04.147Z,98948.38
2023-01-09T04:46:33.334Z,98946.63
2023-01-09T04:49:01.141Z,98948.31
2023-01-09T04:51:28.999Z,98950.94
2023-01-09T04:53:56.787Z,98947.47
2023-01-09T04:56:24.805Z,98951.75
2023-01-09T04:58:52.675Z,98955.97
2023-01-09T05:01:20.609Z,98959.31
2023-01-09T05:03:49.809Z,98982.28
2023-01-09T05:06:17.687Z,98989.00
2023-01-09T05:08:46.635Z,98991.50
2023-01-09T05:11:14.519Z,98994.00
2023-01-09T05:13:42.441Z,98994.06
2023-01-09T05:16:10.603Z,98994.00
2023-01-09T05:18:38.606Z,98997.47
2023-01-09T05:21:07.808Z,98996.63
2023-01-09T05:23:35.739Z,99001.69
2023-01-09T05:26:04.979Z,98989.78
2023-01-09T05:28:33.678Z,98994.91
2023-01-09T05:31:01.461Z,98989.84
2023-01-09T05:33:29.388Z,98972.91
2023-01-09T05:35:57.204Z,98963.53
2023-01-09T05:38:26.482Z,98963.59
2023-01-09T05:40:54.369Z,98952.59
2023-01-09T05:43:22.173Z,98940.72
2023-01-09T05:45:49.959Z,98921.31
2023-01-09T05:48:18.095Z,98916.22
2023-01-09T05:50:46.090Z,98916.22
2023-01-09T05:53:13.885Z,98890.88
2023-01-09T05:55:43.488Z,98870.53
2023-01-09T05:58:11.301Z,98864.63
2023-01-09T06:00:39.234Z,98857.03
2023-01-09T06:03:07.026Z,98838.41
2023-01-09T06:05:35.001Z,98821.47
2023-01-09T06:08:02.868Z,98820.66
2023-01-09T06:10:30.730Z,98801.19
2023-01-09T06:12:59.912Z,98783.44
2023-01-09T06:15:27.792Z,98766.56
2023-01-09T06:17:55.649Z,98752.19
2023-01-09T06:20:23.484Z,98733.53
2023-01-09T06:22:52.231Z,98742.94
2023-01-09T06:25:20.188Z,98732.78
2023-01-09T06:27:48.055Z,98732.78
2023-01-09T06:30:17.827Z,98721.78
2023-01-09T06:32:45.575Z,98715.88
2023-01-09T06:35:13.391Z,98709.06
2023-01-09T06:37:41.199Z,98710.81
2023-01-09T06:40:10.319Z,98684.53
2023-01-09T06:42:38.253Z,98670.22
2023-01-09T06:45:06.922Z,98648.25
2023-01-09T06:47:36.286Z,98634.00
2023-01-09T06:50:04.124Z,98612.81
2023-01-09T06:52:31.952Z,98593.41
2023-01-09T06:54:59.730Z,98574.00
2023-01-09T06:57:27.579Z,98554.59
2023-01-09T06:59:55.424Z,98535.13
2023-01-09T07:02:23.555Z,98536.03
2023-01-09T07:04:52.749Z,98537.75
2023-01-09T07:07:22.276Z,98535.22
2023-01-09T07:09:50.617Z,98528.38
2023-01-09T07:12:18.459Z,98530.09
2023-01-09T07:14:46.347Z,98533.47
2023-01-09T07:17:17.076Z,98532.66
2023-01-09T07:19:44.864Z,98523.38
2023-01-09T07:25:06.999Z,98522.50
2023-01-09T08:07:04.353Z,98578.22
2023-01-09T08:12:25.414Z,98580.00
2023-01-09T08:14:53.213Z,98570.59
2023-01-09T08:17:21.033Z,98568.94
2023-01-09T08:19:48.839Z,98569.81
2023-01-09T08:22:16.672Z,98562.13
2023-01-09T08:24:45.883Z,98562.13
2023-01-09T08:27:13.738Z,98560.47
2023-01-09T08:29:41.559Z,98564.69
2023-01-09T08:32:09.463Z,98577.38
2023-01-09T08:34:37.313Z,98584.97
2023-01-09T08:37:05.809Z,98583.25
2023-01-09T08:39:33.560Z,98595.13
2023-01-09T08:42:20.016Z,98610.31
2023-01-09T08:45:05.444Z,98612.81
2023-01-09T08:47:34.142Z,98624.66
2023-01-09T08:50:01.921Z,98651.66
2023-01-09T08:52:30.752Z,98674.44
2023-01-09T08:54:58.547Z,98694.75
2023-01-09T08:57:27.923Z,98709.06
2023-01-09T08:59:55.801Z,98719.22
2023-01-09T09:02:23.619Z,98715.81
2023-01-09T09:04:53.094Z,98720.09
2023-01-09T09:07:26.362Z,98735.25
2023-01-09T09:09:54.717Z,98743.75
2023-01-09T09:12:23.191Z,98753.91
2023-01-09T09:15:09.689Z,98758.06
2023-01-09T09:17:37.593Z,98784.34
2023-01-09T09:20:06.131Z,98800.34
2023-01-09T09:22:34.184Z,98821.53
2023-01-09T09:25:02.490Z,98829.97
2023-01-09T09:27:30.493Z,98848.53
2023-01-09T09:29:59.782Z,98850.19
2023-01-09T09:32:27.543Z,98873.09
2023-01-09T09:34:55.669Z,98893.44
2023-01-09T09:37:23.618Z,98905.22
2023-01-09T09:39:51.717Z,98925.53
2023-01-09T09:42:58.949Z,98938.22
2023-01-09T09:45:38.488Z,98961.94
2023-01-09T09:48:20.571Z,98967.84
2023-01-09T09:51:25.279Z,98961.88
2023-01-09T09:53:59.824Z,98972.06
2023-01-09T09:56:31.610Z,98994.91
2023-01-09T09:59:03.750Z,99012.69
2023-01-09T10:01:39.336Z,99028.75
2023-01-09T10:04:12.027Z,99052.44
2023-01-09T10:06:43.222Z,99063.44
2023-01-09T10:09:18.352Z,99087.13
2023-01-09T10:11:50.985Z,99108.31
2023-01-09T10:14:24.362Z,99128.66
2023-01-09T10:17:13.379Z,99153.22
2023-01-09T10:20:07.648Z,99173.59
2023-01-09T10:22:45.877Z,99188.81
2023-01-09T10:25:25.402Z,99218.47
2023-01-09T10:28:22.581Z,99233.69
2023-01-09T10:30:54.427Z,99249.75
2023-01-09T10:33:37.012Z,99260.84
2023-01-09T10:36:44.656Z,99256.56
2023-01-09T10:39:19.577Z,99243.00
2023-01-09T10:41:55.208Z,99243.88
2023-01-09T10:44:28.103Z,99225.22
2023-01-09T10:46:57.733Z,99215.91
2023-01-09T10:49:27.821Z,99193.00
2023-01-09T10:52:06.718Z,99187.03
2023-01-09T10:54:34.594Z,99188.75
2023-01-09T10:57:11.855Z,99178.66
2023-01-09T10:59:41.197Z,99181.16
2023-01-09T11:02:25.532Z,99169.28
2023-01-09T11:04:54.715Z,99155.69
2023-01-09T11:07:25.681Z,99151.47
2023-01-09T11:09:57.744Z,99154.88
2023-01-09T11:12:27.539Z,99164.16
2023-01-09T11:14:55.640Z,99159.94
2023-01-09T11:17:28.097Z,99176.91
2023-01-09T11:20:05.771Z,99195.50
2023-01-09T11:22:44.332Z,99204.00
2023-01-09T11:25:15.036Z,99205.69
2023-01-09T11:27:43.281Z,99209.06
2023-01-09T11:30:27.939Z,99214.97
2023-01-09T11:32:57.742Z,99224.31
2023-01-09T11:35:33.705Z,99227.72
2023-01-09T11:38:07.006Z,99227.66
2023-01-09T11:40:46.025Z,99237.84
2023-01-09T11:43:19.189Z,99260.72
2023-01-09T11:46:00.480Z,99281.88
2023-01-09T11:48:32.774Z,99303.91
2023-01-09T11:51:03.997Z,99353.09
2023-01-09T11:53:48.870Z,99398.88
2023-01-09T11:56:18.317Z,99444.75
2023-01-09T11:58:46.432Z,99467.63
2023-01-09T12:01:29.740Z,99467.63
2023-01-09T12:04:19.385Z,99430.25
2023-01-09T12:07:03.697Z,99430.25
2023-01-09T12:09:43.983Z,99432.81
2023-01-09T12:12:24.619Z,99435.38
2023-01-09T12:15:10.113Z,99428.59
2023-01-09T12:17:52.321Z,99420.94
2023-01-09T12:20:32.283Z,99418.38
2023-01-09T12:23:16.567Z,99419.28
2023-01-09T12:25:54.572Z,99418.44
2023-01-09T12:28:58.018Z,99403.03
2023-01-09T12:31:35.371Z,99408.22
2023-01-09T12:34:19.821Z,99412.47
2023-01-09T12:36:59.335Z,99415.81
2023-01-09T12:39:40.174Z,99406.50
2023-01-09T12:42:29.496Z,99409.91
2023-01-09T12:45:02.076Z,99408.19
2023-01-09T12:47:45.455Z,99422.63
2023-01-09T12:50:50.712Z,99422.56
2023-01-09T12:53:25.004Z,99431.06
2023-01-09T12:56:01.566Z,99436.22
2023-01-09T12:58:36.833Z,99433.59
2023-01-09T13:01:09.636Z,99436.97
2023-01-09T13:03:45.085Z,99434.47
2023-01-09T13:06:17.635Z,99432.81
2023-01-09T13:08:50.946Z,99429.34
2023-01-09T13:11:26.061Z,99432.69
2023-01-09T13:13:59.521Z,99440.31
2023-01-09T13:16:31.462Z,99461.63
2023-01-09T13:19:07.048Z,99464.13
2023-01-09T13:21:35.642Z,99460.78
2023-01-09T13:24:11.818Z,99458.22
2023-01-09T13:26:45.281Z,99468.38
2023-01-09T13:29:18.151Z,99487.09
2023-01-09T13:32:08.833Z,99490.44
2023-01-09T13:34:38.521Z,99483.63
2023-01-09T13:37:06.686Z,99479.38
2023-01-09T13:39:36.270Z,99447.94
2023-01-09T13:42:25.149Z,99419.13
2023-01-09T13:44:56.551Z,99403.81
2023-01-09T13:47:27.821Z,99399.59
2023-01-09T13:50:06.368Z,99391.13
2023-01-09T13:52:37.694Z,99395.41
2023-01-09T13:55:25.861Z,99375.81
2023-01-09T13:58:28.458Z,99354.66
2023-01-09T14:01:00.581Z,99323.25
2023-01-09T14:03:32.906Z,99303.72
2023-01-09T14:06:17.549Z,99287.63
2023-01-09T14:08:48.510Z,99271.53
2023-01-09T14:11:22.561Z,99255.47
2023-01-09T14:14:09.106Z,99245.31
2023-01-09T14:16:38.977Z,99226.56
2023-01-09T14:19:19.225Z,99214.75
2023-01-09T14:21:50.808Z,99218.09
2023-01-09T14:24:29.534Z,99209.63
2023-01-09T14:30:33.447Z,99216.44
2023-01-09T14:33:03.295Z,99216.44
2023-01-09T14:35:41.589Z,99216.38
2023-01-09T14:38:27.115Z,99205.41
2023-01-09T14:40:58.129Z,99191.78
2023-01-09T14:43:33.759Z,99186.72
2023-01-09T14:46:11.950Z,99179.91
2023-01-09T14:48:55.333Z,99173.13
2023-01-09T14:51:25.355Z,99162.13
2023-01-09T14:53:54.488Z,99155.31
2023-01-09T14:56:28.956Z,99151.16
2023-01-09T14:59:11.476Z,99147.75
2023-01-09T15:01:43.492Z,99153.72
2023-01-09T15:04:23.621Z,99148.59
2023-01-09T15:06:52.083Z,99139.16
2023-01-09T15:09:25.115Z,99144.28
2023-01-09T15:11:54.514Z,99139.22
2023-01-09T15:14:35.816Z,99139.22
2023-01-09T15:17:05.718Z,99141.78
2023-01-09T15:19:34.483Z,99129.91
2023-01-09T15:22:04.818Z,99114.69
2023-01-09T15:24:34.676Z,99092.69
2023-01-09T15:27:11.972Z,99067.19
2023-01-09T15:29:39.919Z,99061.31
2023-01-09T15:32:14.816Z,99039.28
2023-01-09T15:34:45.771Z,99039.34
2023-01-09T15:37:34.934Z,99018.97
2023-01-09T15:40:07.534Z,99015.59
2023-01-09T15:42:58.079Z,99011.38
2023-01-09T15:45:29.199Z,99007.97
2023-01-09T15:48:16.734Z,99012.22
2023-01-09T15:50:45.190Z,98995.25
2023-01-09T15:53:15.837Z,98985.97
2023-01-09T15:55:43.862Z,98975.81
2023-01-09T15:58:27.185Z,98973.25
2023-01-09T16:00:57.309Z,98968.19
2023-01-09T16:03:27.414Z,98958.84
2023-01-09T16:06:05.320Z,98958.00
2023-01-09T16:08:36.745Z,98956.34
2023-01-09T16:11:07.330Z,98948.72
2023-01-09T16:13:44.226Z,98950.44
2023-01-09T16:16:13.072Z,98942.78
2023-01-09T16:18:51.596Z,98938.56
2023-01-09T16:21:38.415Z,98930.94
2023-01-09T16:24:25.943Z,98932.66
2023-01-09T16:27:11.466Z,98930.03
2023-01-09T16:29:46.104Z,98928.38
2023-01-09T16:32:19.785Z,98927.56
2023-01-09T16:34:53.566Z,98927.56
2023-01-09T16:37:22.471Z,98919.88
2023-01-09T16:40:27.422Z,98917.38
2023-01-09T16:43:03.400Z,98918.19
2023-01-09T16:45:34.278Z,98928.38
2023-01-09T16:48:02.442Z,98922.50
2023-01-09T16:50:31.578Z,98930.94
2023-01-09T16:53:00.692Z,98931.78
2023-01-09T16:55:28.555Z,98926.72
2023-01-09T16:57:56.495Z,98908.88
2023-01-09T17:00:24.476Z,98897.03
2023-01-09T17:02:52.578Z,98886.09
2023-01-09T17:05:20.366Z,98863.19
2023-01-09T17:07:49.690Z,98849.66
2023-01-09T17:10:21.894Z,98845.44
2023-01-09T17:12:50.287Z,98840.38
2023-01-09T17:15:18.131Z,98836.16
2023-01-09T17:17:46.063Z,98832.75
2023-01-09T17:20:19.266Z,98824.31
2023-01-09T17:22:47.102Z,98820.06
2023-01-09T17:25:35.272Z,98810.78
2023-01-09T17:28:21.779Z,98804.84
2023-01-09T17:30:49.776Z,98804.03
2023-01-09T17:33:19.575Z,98804.03
2023-01-09T17:35:48.328Z,98802.31
2023-01-09T17:38:17.662Z,98797.25
2023-01-09T17:40:46.973Z,98791.31
2023-01-09T17:43:14.921Z,98795.50
2023-01-09T17:45:43.230Z,98806.59
2023-01-09T17:48:17.329Z,98798.03
2023-01-09T17:50:45.927Z,98799.75
2023-01-09T17:53:14.339Z,98796.34
2023-01-09T17:55:43.128Z,98795.56
2023-01-09T17:58:25.127Z,98787.91
2023-01-09T18:00:53.342Z,98784.47
2023-01-09T18:03:23.027Z,98781.16
2023-01-09T18:05:51.759Z,98780.31
2023-01-09T18:08:19.839Z,98770.91
2023-01-09T18:10:48.721Z,98777.81
2023-01-09T18:13:18.198Z,98770.22
2023-01-09T18:15:47.535Z,98760.88
2023-01-09T18:18:16.218Z,98737.94
2023-01-09T18:20:46.024Z,98732.94
2023-01-09T18:23:14.387Z,98720.22
2023-01-09T18:25:42.817Z,98720.31
2023-01-09T18:28:11.425Z,98714.38
2023-01-09T18:30:40.660Z,98707.59
2023-01-09T18:33:08.534Z,98701.63
2023-01-09T18:35:37.329Z,98700.88
2023-01-09T18:38:05.143Z,98702.56
2023-01-09T18:40:34.071Z,98700.88
2023-01-09T18:43:04.952Z,98694.88
2023-01-09T18:45:33.243Z,98693.22
2023-01-09T18:48:02.540Z,98691.56
2023-01-09T18:50:30.453Z,98689.00
2023-01-09T18:53:00.315Z,98689.84
2023-01-09T18:55:28.136Z,98693.28
2023-01-09T18:57:56.846Z,98683.94
2023-01-09T19:00:24.900Z,98680.56
2023-01-09T19:02:52.979Z,98673.78
2023-01-09T19:05:22.272Z,98662.81
2023-01-09T19:07:50.140Z,98661.16
2023-01-09T19:10:18.720Z,98654.44
2023-01-09T19:12:46.746Z,98656.09
2023-01-09T19:15:14.569Z,98659.44
2023-01-09T19:17:42.582Z,98670.41
2023-01-09T19:20:11.892Z,98667.03
2023-01-09T19:22:41.064Z,98672.13
2023-01-09T19:25:12.014Z,98672.97
2023-01-09T19:27:40.001Z,98672.13
2023-01-09T19:30:09.576Z,98677.22
2023-01-09T19:32:38.358Z,98672.94
2023-01-09T19:35:06.860Z,98680.63
2023-01-09T19:37:37.288Z,98683.13
2023-01-09T19:40:07.772Z,98678.06
2023-01-09T19:42:35.812Z,98659.50
2023-01-09T19:45:04.178Z,98641.75
2023-01-09T19:47:36.034Z,98604.50
2023-01-09T19:50:05.461Z,98593.63
2023-01-09T19:52:33.286Z,98572.44
2023-01-09T19:55:01.338Z,98550.50
2023-01-09T19:57:30.582Z,98537.00
2023-01-09T20:00:23.984Z,98524.38
2023-01-09T20:02:51.862Z,98509.13
2023-01-09T20:05:19.773Z,98499.03
2023-01-09T20:07:47.625Z,98483.81
2023-01-09T20:10:15.546Z,98482.97
2023-01-09T20:12:51.549Z,98488.09
2023-01-09T20:15:19.450Z,98486.34
2023-01-09T20:17:47.327Z,98471.16
2023-01-09T20:20:16.179Z,98454.31
2023-01-09T20:22:43.944Z,98450.94
2023-01-09T20:25:11.887Z,98435.75
2023-01-09T20:27:39.659Z,98428.25
2023-01-09T20:30:10.695Z,98411.34
2023-01-09T20:32:38.533Z,98395.25
2023-01-09T20:35:07.352Z,98388.56
2023-01-09T20:37:35.173Z,98375.88
2023-01-09T20:40:02.987Z,98361.50
2023-01-09T20:42:32.114Z,98359.84
2023-01-09T20:44:59.872Z,98345.53
2023-01-09T20:47:29.309Z,98337.94
2023-01-09T20:49:57.145Z,98347.25
2023-01-09T20:52:25.021Z,98321.84
2023-01-09T20:54:52.835Z,98322.84
2023-01-09T20:57:20.643Z,98307.59
2023-01-09T20:59:48.718Z,98305.88
2023-01-09T21:02:16.526Z,98315.25
2023-01-09T21:04:45.723Z,98309.31
2023-01-09T21:07:13.662Z,98311.81
2023-01-09T21:09:41.456Z,98313.53
2023-01-09T21:12:23.478Z,98322.81
2023-01-09T21:14:51.521Z,98325.38
2023-01-09T21:17:19.522Z,98327.91
2023-01-09T21:19:49.806Z,98317.75
2023-01-09T21:22:17.757Z,98317.75
2023-01-09T21:24:45.771Z,98317.75
2023-01-09T21:27:13.541Z,98311.88
2023-01-09T21:29:41.594Z,98290.78
2023-01-09T21:32:09.448Z,98278.97
2023-01-09T21:34:37.359Z,98260.41
2023-01-09T21:37:06.570Z,98253.69
2023-01-09T21:39:34.645Z,98252.84
2023-01-09T21:42:19.879Z,98239.31
2023-01-09T21:45:05.232Z,98230.94
2023-01-09T21:47:33.799Z,98221.69
2023-01-09T21:50:01.614Z,98215.88
2023-01-09T21:52:30.814Z,98192.19
2023-01-09T21:54:58.794Z,98188.06
2023-01-09T21:57:26.711Z,98166.91
2023-01-09T21:59:54.480Z,98165.25
2023-01-09T22:02:22.342Z,98162.78
2023-01-09T22:04:50.177Z,98163.59
2023-01-09T22:07:18.808Z,98156.91
2023-01-09T22:09:48.040Z,98164.44
2023-01-09T22:12:15.932Z,98169.53
2023-01-09T22:14:43.828Z,98172.00
2023-01-09T22:17:11.656Z,98174.56
2023-01-09T22:19:39.545Z,98179.66
2023-01-09T22:22:13.160Z,98183.84
2023-01-09T22:24:41.003Z,98183.84
2023-01-09T22:27:10.258Z,98177.91
2023-01-09T22:29:38.092Z,98182.16
2023-01-09T22:32:07.271Z,98188.94
2023-01-09T22:34:35.099Z,98186.31
2023-01-09T22:37:03.439Z,98190.53
2023-01-09T22:39:31.252Z,98199.78
2023-01-09T22:41:59.126Z,98207.34
2023-01-09T22:44:28.504Z,98227.69
2023-01-09T22:46:57.421Z,98232.66
2023-01-09T22:49:53.269Z,98236.03
2023-01-09T22:52:21.595Z,98251.31
2023-01-09T22:54:49.421Z,98245.31
2023-01-09T22:57:17.415Z,98263.06
2023-01-09T22:59:46.633Z,98265.63
2023-01-09T23:06:35.220Z,98270.66
2023-01-09T23:09:03.104Z,98270.63
2023-01-09T23:11:49.700Z,98279.97
2023-01-09T23:14:18.227Z,98276.59
2023-01-09T23:16:46.040Z,98268.09
2023-01-09T23:19:15.621Z,98269.81
2023-01-09T23:21:46.057Z,98268.16
2023-01-09T23:24:15.652Z,98256.28
2023-01-09T23:26:43.759Z,98265.63
2023-01-09T23:29:12.760Z,98265.69
2023-01-09T23:31:40.659Z,98252.97
2023-01-09T23:34:09.007Z,98245.44
2023-01-09T23:36:36.939Z,98229.41
2023-01-09T23:39:08.962Z,98223.47
2023-01-09T23:41:55.000Z,98226.94
2023-01-09T23:44:22.967Z,98212.53
2023-01-09T23:46:50.824Z,98198.25
2023-01-09T23:49:18.804Z,98194.09
2023-01-09T23:51:46.878Z,98195.72
2023-01-09T23:54:17.093Z,98193.22
2023-01-09T23:56:45.010Z,98196.59
2023-01-09T23:59:14.136Z,98190.69
